createdAt,value
2023-04-02T00:01:02.475Z,72.40
2023-04-02T00:03:45.019Z,72.30
2023-04-02T00:06:40.656Z,72.40
2023-04-02T00:09:13.872Z,72.70
2023-04-02T00:11:46.707Z,72.80
2023-04-02T00:14:24.423Z,72.90
2023-04-02T00:16:53.398Z,73.40
2023-04-02T00:19:51.437Z,73.50
2023-04-02T00:22:22.119Z,73.50
2023-04-02T00:24:54.620Z,73.40
2023-04-02T00:27:22.312Z,73.30
2023-04-02T00:29:55.630Z,73.20
2023-04-02T00:32:31.023Z,73.10
2023-04-02T00:35:00.173Z,73.20
2023-04-02T00:37:30.077Z,73.30
2023-04-02T00:40:02.578Z,73.30
2023-04-02T00:42:31.685Z,73.30
2023-04-02T00:45:00.141Z,73.60
2023-04-02T00:47:33.893Z,73.60
2023-04-02T00:50:21.129Z,73.20
2023-04-02T00:52:52.488Z,72.50
2023-04-02T00:55:31.172Z,72.40
2023-04-02T00:57:59.776Z,72.30
2023-04-02T01:00:37.751Z,72.40
2023-04-02T01:03:17.255Z,72.50
2023-04-02T01:05:57.358Z,72.70
2023-04-02T01:08:24.241Z,72.90
2023-04-02T01:11:13.671Z,73.00
2023-04-02T01:14:12.389Z,74.20
2023-04-02T01:16:46.727Z,73.60
2023-04-02T01:20:00.988Z,73.60
2023-04-02T01:22:35.228Z,73.60
2023-04-02T01:25:06.473Z,73.80
2023-04-02T01:27:42.014Z,73.90
2023-04-02T01:30:12.219Z,73.90
2023-04-02T01:32:40.571Z,73.80
2023-04-02T01:35:09.607Z,73.60
2023-04-02T01:37:53.605Z,73.50
2023-04-02T01:40:31.046Z,73.60
2023-04-02T01:43:32.011Z,73.60
2023-04-02T01:46:00.504Z,73.80
2023-04-02T01:48:31.085Z,73.90
2023-04-02T01:51:00.790Z,74.00
2023-04-02T01:53:31.203Z,74.10
2023-04-02T01:56:03.077Z,73.90
2023-04-02T01:58:33.101Z,73.90
2023-04-02T02:01:07.270Z,73.80
2023-04-02T02:03:36.667Z,73.60
2023-04-02T02:06:05.934Z,73.50
2023-04-02T02:08:40.069Z,73.60
2023-04-02T02:11:18.855Z,73.70
2023-04-02T02:13:54.643Z,74.10
2023-04-02T02:16:22.740Z,73.90
2023-04-02T02:21:55.151Z,73.80
2023-04-02T02:24:24.001Z,73.70
2023-04-02T02:27:04.884Z,73.70
2023-04-02T02:29:37.513Z,73.80
2023-04-02T02:32:06.420Z,74.00
2023-04-02T02:34:43.487Z,74.10
2023-04-02T02:37:19.247Z,74.20
2023-04-02T02:39:51.813Z,74.40
2023-04-02T02:42:40.741Z,74.50
2023-04-02T02:45:14.905Z,74.50
2023-04-02T02:47:45.200Z,74.50
2023-04-02T02:50:20.808Z,74.40
2023-04-02T02:52:57.929Z,74.10
2023-04-02T02:55:36.973Z,73.80
2023-04-02T02:58:32.941Z,73.70
2023-04-02T03:01:18.741Z,73.30
2023-04-02T03:03:48.882Z,73.70
2023-04-02T03:06:20.614Z,73.30
2023-04-02T03:09:03.145Z,73.40
2023-04-02T03:12:05.695Z,74.80
2023-04-02T03:14:38.942Z,75.10
2023-04-02T03:17:18.583Z,74.90
2023-04-02T03:19:52.623Z,74.90
2023-04-02T03:22:37.293Z,75.10
2023-04-02T03:25:33.229Z,75.30
2023-04-02T03:28:06.192Z,75.50
2023-04-02T03:31:03.622Z,75.70
2023-04-02T03:33:35.902Z,75.80
2023-04-02T03:36:31.730Z,75.80
2023-04-02T03:39:12.201Z,75.50
2023-04-02T03:41:58.691Z,75.40
2023-04-02T03:44:39.500Z,75.70
2023-04-02T03:47:37.953Z,75.80
2023-04-02T03:50:17.339Z,75.80
2023-04-02T03:52:45.689Z,75.60
2023-04-02T03:55:22.827Z,75.70
2023-04-02T03:58:03.332Z,76.00
2023-04-02T04:00:48.666Z,76.00
2023-04-02T04:03:21.364Z,76.00
2023-04-02T04:06:06.573Z,76.10
2023-04-02T04:08:42.486Z,76.30
2023-04-02T04:11:15.464Z,76.30
2023-04-02T04:13:46.059Z,76.40
2023-04-02T04:16:21.846Z,76.30
2023-04-02T04:19:03.312Z,76.30
2023-04-02T04:21:38.843Z,76.00
2023-04-02T04:24:23.088Z,75.80
2023-04-02T04:27:12.463Z,75.70
2023-04-02T04:30:18.315Z,75.90
2023-04-02T04:32:58.522Z,76.00
2023-04-02T04:35:37.616Z,75.90
2023-04-02T04:38:12.153Z,76.30
2023-04-02T04:40:53.911Z,76.40
2023-04-02T04:44:09.993Z,76.70
2023-04-02T04:46:46.005Z,76.80
2023-04-02T04:49:31.058Z,76.90
2023-04-02T04:52:08.987Z,77.10
2023-04-02T04:54:39.653Z,77.20
2023-04-02T04:57:36.613Z,77.40
2023-04-02T05:00:12.973Z,77.40
2023-04-02T05:02:49.031Z,77.50
2023-04-02T05:05:24.930Z,77.70
2023-04-02T05:07:59.968Z,77.50
2023-04-02T05:10:49.414Z,77.20
2023-04-02T05:13:25.254Z,76.90
2023-04-02T05:16:09.241Z,76.80
2023-04-02T05:18:52.957Z,76.30
2023-04-02T05:21:42.149Z,76.30
2023-04-02T05:24:38.197Z,76.20
2023-04-02T05:27:20.447Z,76.30
2023-04-02T05:30:04.400Z,76.30
2023-04-02T05:32:43.980Z,76.30
2023-04-02T05:35:19.860Z,76.50
2023-04-02T05:37:47.374Z,76.60
2023-04-02T05:40:24.186Z,75.60
2023-04-02T05:42:53.165Z,75.90
2023-04-02T05:45:31.809Z,76.00
2023-04-02T05:48:05.909Z,76.10
2023-04-02T05:50:43.322Z,76.00
2023-04-02T05:53:23.299Z,76.00
2023-04-02T05:55:58.274Z,75.80
2023-04-02T05:58:39.850Z,75.80
2023-04-02T06:01:34.909Z,75.90
2023-04-02T06:04:30.609Z,75.60
2023-04-02T06:06:58.502Z,75.80
2023-04-02T06:09:35.970Z,76.10
2023-04-02T06:12:18.227Z,76.30
2023-04-02T06:14:46.087Z,76.20
2023-04-02T06:17:19.675Z,76.20
2023-04-02T06:19:48.000Z,76.50
2023-04-02T06:22:38.534Z,76.50
2023-04-02T06:25:33.780Z,76.60
2023-04-02T06:28:06.233Z,76.60
2023-04-02T06:30:41.692Z,76.70
2023-04-02T06:33:12.461Z,76.30
2023-04-02T06:35:46.511Z,76.10
2023-04-02T06:38:20.272Z,75.90
2023-04-02T06:41:02.151Z,75.80
2023-04-02T06:43:49.052Z,75.60
2023-04-02T06:46:34.202Z,75.70
2023-04-02T06:49:19.427Z,75.80
2023-04-02T06:51:49.367Z,75.40
2023-04-02T06:54:17.752Z,75.40
2023-04-02T06:56:52.889Z,74.80
2023-04-02T06:59:35.504Z,74.70
2023-04-02T07:02:20.467Z,74.60
2023-04-02T07:04:48.525Z,74.50
2023-04-02T07:07:16.650Z,74.30
2023-04-02T07:09:45.760Z,74.00
2023-04-02T07:12:13.638Z,74.10
2023-04-02T07:14:41.898Z,74.00
2023-04-02T07:17:18.486Z,73.50
2023-04-02T07:19:49.141Z,74.20
2023-04-02T07:22:19.289Z,73.10
2023-04-02T07:24:50.533Z,73.00
2023-04-02T07:27:17.612Z,72.90
2023-04-02T07:29:44.593Z,72.90
2023-04-02T07:32:13.443Z,72.90
2023-04-02T07:34:41.815Z,72.70
2023-04-02T07:37:14.601Z,72.60
2023-04-02T07:39:41.484Z,72.30
2023-04-02T07:42:08.370Z,72.10
2023-04-02T07:44:42.942Z,72.20
2023-04-02T07:47:10.600Z,72.20
2023-04-02T07:49:37.502Z,71.90
2023-04-02T07:52:04.483Z,71.80
2023-04-02T07:54:31.289Z,72.00
2023-04-02T07:56:58.190Z,72.00
2023-04-02T07:59:25.113Z,72.10
2023-04-02T08:01:53.568Z,71.10
2023-04-02T08:04:22.806Z,71.10
2023-04-02T08:06:50.575Z,70.40
2023-04-02T08:09:17.733Z,69.80
2023-04-02T08:11:46.320Z,70.00
2023-04-02T08:14:13.194Z,70.10
2023-04-02T08:16:52.055Z,70.60
2023-04-02T08:19:20.065Z,70.90
2023-04-02T08:21:50.392Z,70.60
2023-04-02T08:24:19.327Z,70.10
2023-04-02T08:26:47.938Z,69.30
2023-04-02T08:29:14.896Z,68.90
2023-04-02T08:31:41.840Z,68.60
2023-04-02T08:34:09.112Z,68.10
2023-04-02T08:36:41.348Z,67.80
2023-04-02T08:39:11.680Z,67.50
2023-04-02T08:41:53.385Z,67.40
2023-04-02T08:44:28.412Z,67.30
2023-04-02T08:47:05.499Z,67.20
2023-04-02T08:50:02.178Z,67.10
2023-04-02T08:52:32.438Z,66.60
2023-04-02T08:55:00.743Z,66.50
2023-04-02T08:57:27.629Z,65.30
2023-04-02T09:00:06.097Z,65.60
2023-04-02T09:02:41.804Z,65.40
2023-04-02T09:05:18.831Z,65.60
2023-04-02T09:07:48.001Z,65.70
2023-04-02T09:10:17.072Z,65.50
2023-04-02T09:12:49.590Z,65.70
2023-04-02T09:15:31.340Z,65.50
2023-04-02T09:18:13.737Z,65.20
2023-04-02T09:20:40.928Z,62.70
2023-04-02T09:23:16.813Z,63.70
2023-04-02T09:25:57.450Z,63.10
2023-04-02T09:28:30.604Z,62.90
2023-04-02T09:31:05.548Z,62.50
2023-04-02T09:33:49.093Z,62.30
2023-04-02T09:36:37.131Z,62.00
2023-04-02T09:39:18.333Z,61.90
2023-04-02T09:41:52.861Z,60.30
2023-04-02T09:44:32.257Z,60.10
2023-04-02T09:47:05.290Z,59.90
2023-04-02T09:49:39.338Z,59.70
2023-04-02T09:52:08.007Z,59.90
2023-04-02T09:54:44.493Z,59.80
2023-04-02T09:57:41.126Z,59.70
2023-04-02T10:00:29.783Z,59.20
2023-04-02T10:03:18.570Z,59.70
2023-04-02T10:05:47.419Z,60.20
2023-04-02T10:08:28.124Z,60.20
2023-04-02T10:11:02.140Z,59.80
2023-04-02T10:13:46.251Z,58.80
2023-04-02T10:16:25.589Z,58.10
2023-04-02T10:18:59.733Z,57.60
2023-04-02T10:21:31.312Z,57.60
2023-04-02T10:23:59.876Z,57.40
2023-04-02T10:27:02.908Z,57.70
2023-04-02T10:30:22.072Z,57.00
2023-04-02T10:32:51.765Z,56.20
2023-04-02T10:35:54.633Z,56.60
2023-04-02T10:38:47.528Z,57.10
2023-04-02T10:41:32.439Z,57.20
2023-04-02T10:44:41.571Z,58.00
2023-04-02T10:47:14.414Z,56.50
2023-04-02T10:49:53.620Z,55.50
2023-04-02T10:52:26.703Z,54.40
2023-04-02T10:55:16.321Z,52.80
2023-04-02T10:57:44.935Z,51.00
2023-04-02T11:00:11.957Z,50.90
2023-04-02T11:03:06.090Z,51.00
2023-04-02T11:06:04.281Z,51.70
2023-04-02T11:08:45.841Z,52.20
2023-04-02T11:11:17.154Z,52.40
2023-04-02T11:13:43.992Z,52.60
2023-04-02T11:16:15.548Z,51.00
2023-04-02T11:18:44.797Z,50.90
2023-04-02T11:21:30.411Z,50.40
2023-04-02T11:24:01.805Z,49.20
2023-04-02T11:26:35.224Z,47.70
2023-04-02T11:29:27.562Z,48.50
2023-04-02T11:32:33.289Z,48.90
2023-04-02T11:35:23.091Z,47.70
2023-04-02T11:37:50.141Z,47.10
2023-04-02T11:40:16.902Z,46.10
2023-04-02T11:42:50.531Z,44.10
2023-04-02T11:45:23.264Z,44.00
2023-04-02T11:48:03.916Z,43.60
2023-04-02T11:50:32.262Z,43.80
2023-04-02T11:53:04.911Z,44.20
2023-04-02T11:55:34.062Z,43.90
2023-04-02T11:58:22.806Z,43.60
2023-04-02T12:01:20.689Z,42.90
2023-04-02T12:04:22.058Z,42.80
2023-04-02T12:07:10.819Z,43.00
2023-04-02T12:09:51.052Z,42.50
2023-04-02T12:12:33.654Z,41.80
2023-04-02T12:15:01.114Z,40.20
2023-04-02T12:17:37.596Z,40.40
2023-04-02T12:20:10.573Z,40.90
2023-04-02T12:22:47.660Z,40.90
2023-04-02T12:25:29.995Z,39.70
2023-04-02T12:28:18.536Z,39.50
2023-04-02T12:30:47.677Z,40.20
2023-04-02T12:33:20.425Z,40.70
2023-04-02T12:35:53.337Z,40.10
2023-04-02T12:38:33.407Z,40.30
2023-04-02T12:41:04.209Z,40.10
2023-04-02T12:43:33.788Z,40.00
2023-04-02T12:46:05.773Z,41.20
2023-04-02T12:48:34.750Z,41.70
2023-04-02T12:51:03.061Z,42.10
2023-04-02T12:53:37.493Z,41.30
2023-04-02T12:56:05.608Z,42.20
2023-04-02T12:58:45.189Z,41.50
2023-04-02T13:01:28.194Z,41.30
2023-04-02T13:04:12.193Z,39.40
2023-04-02T13:06:49.982Z,39.10
2023-04-02T13:09:45.474Z,39.10
2023-04-02T13:12:33.716Z,38.70
2023-04-02T13:15:04.119Z,38.60
2023-04-02T13:18:14.475Z,38.90
2023-04-02T13:20:43.466Z,38.20
2023-04-02T13:23:29.165Z,37.50
2023-04-02T13:26:17.356Z,36.90
2023-04-02T13:28:56.520Z,37.10
2023-04-02T13:31:23.813Z,37.10
2023-04-02T13:33:50.984Z,37.10
2023-04-02T13:36:17.850Z,36.30
2023-04-02T13:38:44.740Z,36.10
2023-04-02T13:41:27.943Z,35.40
2023-04-02T13:43:56.694Z,35.90
2023-04-02T13:46:27.041Z,35.70
2023-04-02T13:48:55.505Z,34.90
2023-04-02T13:51:46.573Z,34.90
2023-04-02T13:54:40.628Z,36.20
2023-04-02T13:57:07.544Z,36.60
2023-04-02T13:59:34.545Z,35.70
2023-04-02T14:02:08.740Z,35.70
2023-04-02T14:04:40.736Z,35.50
2023-04-02T14:07:26.260Z,35.40
2023-04-02T14:10:14.556Z,35.00
2023-04-02T14:12:44.496Z,34.80
2023-04-02T14:15:41.773Z,34.80
2023-04-02T14:18:20.741Z,35.10
2023-04-02T14:21:03.655Z,34.80
2023-04-02T14:23:41.756Z,35.10
2023-04-02T14:26:23.260Z,34.30
2023-04-02T14:29:10.418Z,33.80
2023-04-02T14:31:58.429Z,32.70
2023-04-02T14:34:31.531Z,32.50
2023-04-02T14:36:58.627Z,32.10
2023-04-02T14:39:42.553Z,32.60
2023-04-02T14:42:15.720Z,32.50
2023-04-02T14:44:50.318Z,32.10
2023-04-02T14:47:24.423Z,31.20
2023-04-02T14:49:56.457Z,31.20
2023-04-02T14:52:25.446Z,32.10
2023-04-02T14:55:05.328Z,31.80
2023-04-02T14:57:48.874Z,31.40
2023-04-02T15:00:43.600Z,31.30
2023-04-02T15:03:25.023Z,31.50
2023-04-02T15:06:06.014Z,32.70
2023-04-02T15:08:46.792Z,34.30
2023-04-02T15:11:41.603Z,35.00
2023-04-02T15:14:27.784Z,34.90
2023-04-02T15:16:54.725Z,35.80
2023-04-02T15:19:21.558Z,36.10
2023-04-02T15:22:20.765Z,36.60
2023-04-02T15:25:17.925Z,36.70
2023-04-02T15:28:22.614Z,36.30
2023-04-02T15:30:55.014Z,35.70
2023-04-02T15:33:49.838Z,35.60
2023-04-02T15:36:22.899Z,35.40
2023-04-02T15:39:13.273Z,35.00
2023-04-02T15:42:14.949Z,34.20
2023-04-02T15:45:08.141Z,34.10
2023-04-02T15:48:03.863Z,33.10
2023-04-02T15:50:42.805Z,33.00
2023-04-02T15:53:26.679Z,32.80
2023-04-02T15:56:16.237Z,32.20
2023-04-02T15:59:24.658Z,32.50
2023-04-02T16:02:12.149Z,33.20
2023-04-02T16:05:06.431Z,33.90
2023-04-02T16:08:09.296Z,34.20
2023-04-02T16:10:42.931Z,34.70
2023-04-02T16:13:28.904Z,34.90
2023-04-02T16:16:21.220Z,35.40
2023-04-02T16:19:02.500Z,35.50
2023-04-02T16:21:38.688Z,35.30
2023-04-02T16:24:13.080Z,35.10
2023-04-02T16:26:45.911Z,36.00
2023-04-02T16:29:43.739Z,36.60
2023-04-02T16:32:24.355Z,36.80
2023-04-02T16:35:41.614Z,37.30
2023-04-02T16:38:43.049Z,37.80
2023-04-02T16:41:31.065Z,38.10
2023-04-02T16:44:15.905Z,39.00
2023-04-02T16:47:20.766Z,39.60
2023-04-02T16:49:58.964Z,41.10
2023-04-02T16:52:47.663Z,41.10
2023-04-02T16:55:39.339Z,41.30
2023-04-02T16:58:37.642Z,41.40
2023-04-02T17:01:21.892Z,41.70
2023-04-02T17:03:48.889Z,42.60
2023-04-02T17:06:31.039Z,43.70
2023-04-02T17:09:09.248Z,44.60
2023-04-02T17:11:48.102Z,45.20
2023-04-02T17:14:36.263Z,46.00
2023-04-02T17:17:04.400Z,46.40
2023-04-02T17:19:32.591Z,46.80
2023-04-02T17:22:04.734Z,47.30
2023-04-02T17:24:51.681Z,47.90
2023-04-02T17:27:43.352Z,47.40
2023-04-02T17:30:57.878Z,48.10
2023-04-02T17:33:26.996Z,48.60
2023-04-02T17:35:59.614Z,49.30
2023-04-02T17:38:35.799Z,49.00
2023-04-02T17:41:02.578Z,48.40
2023-04-02T17:43:47.278Z,48.90
2023-04-02T17:46:16.142Z,49.50
2023-04-02T17:48:52.286Z,49.70
2023-04-02T17:51:48.894Z,50.00
2023-04-02T17:54:35.980Z,50.30
2023-04-02T17:57:31.622Z,50.70
2023-04-02T18:00:35.816Z,51.20
2023-04-02T18:03:15.291Z,51.50
2023-04-02T18:06:07.114Z,51.70
2023-04-02T18:08:33.880Z,51.90
2023-04-02T18:11:13.696Z,52.20
2023-04-02T18:13:55.430Z,52.30
2023-04-02T18:16:25.369Z,52.60
2023-04-02T18:19:10.045Z,52.70
2023-04-02T18:21:53.646Z,52.80
2023-04-02T18:25:01.986Z,53.00
2023-04-02T18:27:44.175Z,53.30
2023-04-02T18:30:29.946Z,53.50
2023-04-02T18:33:05.851Z,53.60
2023-04-02T18:35:42.539Z,53.90
2023-04-02T18:38:12.535Z,53.70
2023-04-02T18:40:57.846Z,54.00
2023-04-02T18:43:46.091Z,54.50
2023-04-02T18:46:43.596Z,54.90
2023-04-02T18:49:23.446Z,55.10
2023-04-02T18:51:55.727Z,55.30
2023-04-02T18:54:30.075Z,55.50
2023-04-02T18:56:57.081Z,55.60
2023-04-02T18:59:46.562Z,55.80
2023-04-02T19:02:41.478Z,56.10
2023-04-02T19:05:40.767Z,56.00
2023-04-02T19:08:13.478Z,56.50
2023-04-02T19:10:47.473Z,56.00
2023-04-02T19:13:16.645Z,56.60
2023-04-02T19:16:03.711Z,56.50
2023-04-02T19:19:04.549Z,56.90
2023-04-02T19:22:04.119Z,57.10
2023-04-02T19:24:33.648Z,56.90
2023-04-02T19:27:03.651Z,57.20
2023-04-02T19:29:36.625Z,57.00
2023-04-02T19:32:12.474Z,57.30
2023-04-02T19:35:02.353Z,57.40
2023-04-02T19:37:36.010Z,57.30
2023-04-02T19:40:07.694Z,57.40
2023-04-02T19:42:49.007Z,57.30
2023-04-02T19:45:47.780Z,57.50
2023-04-02T19:48:24.602Z,57.40
2023-04-02T19:50:51.628Z,57.40
2023-04-02T19:53:18.912Z,56.80
2023-04-02T19:55:46.570Z,56.40
2023-04-02T19:58:34.677Z,56.70
2023-04-02T20:01:02.242Z,57.10
2023-04-02T20:03:30.365Z,57.30
2023-04-02T20:05:59.457Z,57.20
2023-04-02T20:08:27.589Z,56.70
2023-04-02T20:10:55.704Z,56.00
2023-04-02T20:13:22.606Z,56.40
2023-04-02T20:15:51.393Z,56.50
2023-04-02T20:18:18.630Z,56.30
2023-04-02T20:20:46.816Z,56.00
2023-04-02T20:23:15.824Z,55.80
2023-04-02T20:25:46.945Z,56.00
2023-04-02T20:28:14.298Z,56.10
2023-04-02T20:30:41.266Z,56.20
2023-04-02T20:33:08.207Z,56.20
2023-04-02T20:35:37.552Z,56.50
2023-04-02T20:38:06.652Z,56.60
2023-04-02T20:40:34.066Z,57.00
2023-04-02T20:43:01.352Z,56.80
2023-04-02T20:45:29.361Z,56.10
2023-04-02T20:47:56.632Z,55.80
2023-04-02T20:50:23.880Z,56.70
2023-04-02T20:52:51.478Z,57.30
2023-04-02T20:55:18.624Z,57.70
2023-04-02T20:57:45.646Z,57.70
2023-04-02T21:00:13.499Z,57.30
2023-04-02T21:02:40.499Z,56.70
2023-04-02T21:05:07.777Z,56.00
2023-04-02T21:07:34.763Z,55.90
2023-04-02T21:10:01.769Z,55.70
2023-04-02T21:12:28.676Z,55.60
2023-04-02T21:15:00.259Z,55.60
2023-04-02T21:17:29.247Z,56.40
2023-04-02T21:19:56.089Z,55.90
2023-04-02T21:22:23.197Z,56.10
2023-04-02T21:24:49.981Z,56.10
2023-04-02T21:27:17.431Z,56.30
2023-04-02T21:29:44.371Z,56.40
2023-04-02T21:32:20.223Z,56.40
2023-04-02T21:34:48.925Z,56.10
2023-04-02T21:37:15.846Z,56.30
2023-04-02T21:39:42.777Z,56.50
2023-04-02T21:42:11.143Z,56.70
2023-04-02T21:44:38.062Z,56.50
2023-04-02T21:47:05.078Z,56.50
2023-04-02T21:49:32.099Z,56.50
2023-04-02T21:51:59.560Z,56.50
2023-04-02T21:54:26.555Z,56.50
2023-04-02T21:56:53.694Z,56.90
2023-04-02T21:59:20.705Z,57.10
2023-04-02T22:01:52.054Z,57.30
2023-04-02T22:04:24.798Z,57.50
2023-04-02T22:06:52.741Z,57.90
2023-04-02T22:09:23.804Z,58.00
2023-04-02T22:11:54.359Z,58.30
2023-04-02T22:14:21.729Z,58.50
2023-04-02T22:16:48.718Z,58.80
2023-04-02T22:19:16.861Z,59.10
2023-04-02T22:21:44.471Z,58.90
2023-04-02T22:24:14.462Z,59.00
2023-04-02T22:26:41.812Z,59.10
2023-04-02T22:29:09.279Z,59.20
2023-04-02T22:31:36.670Z,59.10
2023-04-02T22:34:05.570Z,59.20
2023-04-02T22:36:33.047Z,59.30
2023-04-02T22:39:00.616Z,59.20
2023-04-02T22:41:32.027Z,59.20
2023-04-02T22:44:00.213Z,59.10
2023-04-02T22:46:28.465Z,59.10
2023-04-02T22:48:56.240Z,58.90
2023-04-02T22:51:24.061Z,58.50
2023-04-02T22:53:53.748Z,58.30
2023-04-02T22:56:24.706Z,58.20
2023-04-02T22:58:51.537Z,57.90
2023-04-02T23:01:41.138Z,58.10
2023-04-02T23:04:08.120Z,58.30
2023-04-02T23:06:35.051Z,58.30
2023-04-02T23:09:02.090Z,58.20
2023-04-02T23:11:29.174Z,57.80
2023-04-02T23:13:58.037Z,57.30
2023-04-02T23:16:27.529Z,57.10
2023-04-02T23:18:55.601Z,57.10
2023-04-02T23:21:22.599Z,56.80
2023-04-02T23:23:50.433Z,56.80
2023-04-02T23:26:21.675Z,56.50
2023-04-02T23:28:49.731Z,56.40
2023-04-02T23:31:20.383Z,56.30
2023-04-02T23:33:47.499Z,56.30
2023-04-02T23:36:20.685Z,56.20
2023-04-02T23:38:47.830Z,56.20
2023-04-02T23:41:16.587Z,56.20
2023-04-02T23:43:43.982Z,56.10
2023-04-02T23:46:10.990Z,55.90
2023-04-02T23:48:38.018Z,56.00
2023-04-02T23:51:05.790Z,56.10
2023-04-02T23:53:33.887Z,56.10
2023-04-02T23:56:00.840Z,56.10
2023-04-02T23:58:27.838Z,56.30
